createdAt,value
2023-01-19T00:01:31.356Z,98621.38
2023-01-19T00:04:33.501Z,98643.53
2023-01-19T00:07:35.632Z,98653.84
2023-01-19T00:10:37.795Z,98643.41
2023-01-19T00:13:40.636Z,98627.25
2023-01-19T00:16:43.525Z,98623.69
2023-01-19T00:23:04.915Z,98662.59
2023-01-19T00:26:08.895Z,98606.84
2023-01-19T00:29:29.392Z,98646.56
2023-01-19T00:36:23.083Z,98623.50
2023-01-19T00:39:31.258Z,98627.59
2023-01-19T00:42:44.395Z,98630.31
2023-01-19T00:45:58.456Z,98612.72
2023-01-19T00:49:09.194Z,98612.00
2023-01-19T00:52:33.036Z,98632.41
2023-01-19T00:56:00.273Z,98631.28
2023-01-19T00:59:16.994Z,98583.91
2023-01-19T01:02:39.019Z,98623.88
2023-01-19T01:05:44.016Z,98630.94
2023-01-19T01:09:00.840Z,98627.28
2023-01-19T01:12:03.365Z,98608.06
2023-01-19T01:15:10.552Z,98605.88
2023-01-19T01:18:13.039Z,98554.25
2023-01-19T01:21:18.490Z,98611.66
2023-01-19T01:24:21.671Z,98617.63
2023-01-19T01:27:26.528Z,98596.56
2023-01-19T01:30:29.424Z,98625.28
2023-01-19T01:33:40.759Z,98634.16
2023-01-19T01:36:44.668Z,98610.81
2023-01-19T01:40:01.343Z,98626.75
2023-01-19T01:43:04.268Z,98623.06
2023-01-19T01:46:07.033Z,98585.84
2023-01-19T01:49:16.106Z,98616.22
2023-01-19T01:52:18.740Z,98615.59
2023-01-19T01:55:22.842Z,98614.91
2023-01-19T02:02:00.437Z,98634.28
2023-01-19T02:05:07.516Z,98644.94
2023-01-19T02:08:38.493Z,98658.75
2023-01-19T02:11:59.760Z,98659.78
2023-01-19T02:15:01.975Z,98633.44
2023-01-19T02:18:04.242Z,98620.41
2023-01-19T02:21:26.616Z,98597.41
2023-01-19T02:24:29.311Z,98602.56
2023-01-19T02:27:32.433Z,98632.28
2023-01-19T02:30:35.950Z,98651.25
2023-01-19T02:33:38.361Z,98669.44
2023-01-19T02:36:49.150Z,98663.63
2023-01-19T02:40:01.956Z,98647.44
2023-01-19T02:43:05.186Z,98629.25
2023-01-19T02:46:07.327Z,98628.50
2023-01-19T02:49:09.549Z,98603.16
2023-01-19T02:52:17.778Z,98611.53
2023-01-19T02:55:22.368Z,98590.47
2023-01-19T02:58:31.709Z,98631.38
2023-01-19T03:02:12.906Z,98642.72
2023-01-19T03:05:24.869Z,98644.09
2023-01-19T03:08:52.437Z,98651.47
2023-01-19T03:12:10.068Z,98623.00
2023-01-19T03:15:22.727Z,98653.41
2023-01-19T03:18:26.788Z,98648.66
2023-01-19T03:21:29.850Z,98669.56
2023-01-19T03:24:36.878Z,98695.69
2023-01-19T03:27:40.946Z,98665.63
2023-01-19T03:30:47.844Z,98653.47
2023-01-19T03:33:51.808Z,98638.13
2023-01-19T03:36:55.646Z,98628.34
2023-01-19T03:39:57.872Z,98589.94
2023-01-19T03:43:01.567Z,98586.63
2023-01-19T03:46:05.203Z,98575.91
2023-01-19T03:49:08.396Z,98596.25
2023-01-19T03:52:10.687Z,98604.31
2023-01-19T03:55:13.671Z,98615.28
2023-01-19T03:58:15.846Z,98616.50
2023-01-19T04:01:22.633Z,98641.38
2023-01-19T04:04:25.516Z,98657.69
2023-01-19T04:07:28.496Z,98643.41
2023-01-19T04:10:30.610Z,98612.09
2023-01-19T04:13:32.811Z,98629.16
2023-01-19T04:16:35.217Z,98631.69
2023-01-19T04:19:37.372Z,98632.88
2023-01-19T04:22:39.596Z,98643.31
2023-01-19T04:25:41.759Z,98632.78
2023-01-19T04:28:43.964Z,98632.84
2023-01-19T04:31:46.366Z,98627.56
2023-01-19T04:34:48.525Z,98639.88
2023-01-19T04:37:50.758Z,98640.22
2023-01-19T04:40:53.434Z,98634.19
2023-01-19T04:43:55.552Z,98610.28
2023-01-19T04:46:57.776Z,98606.56
2023-01-19T04:49:59.971Z,98615.16
2023-01-19T04:53:02.560Z,98613.97
2023-01-19T04:56:05.221Z,98621.28
2023-01-19T04:59:07.372Z,98631.06
2023-01-19T05:02:09.682Z,98635.75
2023-01-19T05:05:11.975Z,98634.03
2023-01-19T05:08:14.166Z,98651.03
2023-01-19T05:11:16.318Z,98645.31
2023-01-19T05:14:18.874Z,98644.59
2023-01-19T05:17:21.061Z,98635.19
2023-01-19T05:20:23.911Z,98657.06
2023-01-19T05:23:26.045Z,98679.47
2023-01-19T05:26:28.168Z,98681.66
2023-01-19T05:29:30.286Z,98695.25
2023-01-19T05:32:32.649Z,98689.38
2023-01-19T05:35:36.646Z,98696.59
2023-01-19T05:38:38.903Z,98700.72
2023-01-19T05:41:42.078Z,98682.16
2023-01-19T05:44:44.406Z,98669.19
2023-01-19T05:47:46.771Z,98659.69
2023-01-19T05:50:49.625Z,98663.88
2023-01-19T05:53:51.913Z,98670.84
2023-01-19T05:56:54.089Z,98654.66
2023-01-19T05:59:56.284Z,98642.16
2023-01-19T06:03:00.861Z,98633.09
2023-01-19T06:06:03.798Z,98655.53
2023-01-19T06:09:07.833Z,98656.75
2023-01-19T06:12:10.049Z,98657.56
2023-01-19T06:15:14.435Z,98629.84
2023-01-19T06:18:16.567Z,98627.09
2023-01-19T06:21:18.686Z,98655.41
2023-01-19T06:24:20.908Z,98630.41
2023-01-19T06:27:23.149Z,98629.19
2023-01-19T06:30:25.370Z,98636.53
2023-01-19T06:33:28.123Z,98629.28
2023-01-19T06:36:30.325Z,98622.25
2023-01-19T06:39:33.095Z,98654.28
2023-01-19T06:42:37.847Z,98668.00
2023-01-19T06:45:40.050Z,98672.84
2023-01-19T06:48:42.207Z,98664.34
2023-01-19T06:51:44.574Z,98677.72
2023-01-19T06:54:46.999Z,98675.91
2023-01-19T06:57:49.168Z,98677.72
2023-01-19T07:00:51.878Z,98669.84
2023-01-19T07:03:58.615Z,98667.69
2023-01-19T07:07:02.337Z,98668.16
2023-01-19T07:10:05.093Z,98664.81
2023-01-19T07:13:13.899Z,98670.06
2023-01-19T07:16:34.383Z,98658.47
2023-01-19T07:19:36.868Z,98618.59
2023-01-19T07:22:39.341Z,98659.06
2023-01-19T07:25:46.246Z,98674.41
2023-01-19T07:28:48.950Z,98685.41
2023-01-19T07:31:54.357Z,98693.34
2023-01-19T07:34:56.627Z,98689.53
2023-01-19T07:37:59.068Z,98692.94
2023-01-19T07:41:03.599Z,98667.94
2023-01-19T07:44:05.732Z,98676.72
2023-01-19T07:47:11.212Z,98691.94
2023-01-19T07:50:13.971Z,98671.41
2023-01-19T07:53:17.011Z,98697.50
2023-01-19T07:56:22.836Z,98717.97
2023-01-19T07:59:25.090Z,98707.41
2023-01-19T08:02:27.970Z,98715.41
2023-01-19T08:05:33.514Z,98710.25
2023-01-19T08:08:37.543Z,98654.78
2023-01-19T08:11:42.239Z,98658.47
2023-01-19T08:14:44.451Z,98658.97
2023-01-19T08:17:46.684Z,98699.41
2023-01-19T08:20:50.937Z,98685.03
2023-01-19T08:23:55.944Z,98689.56
2023-01-19T08:26:59.890Z,98691.94
2023-01-19T08:30:02.346Z,98669.28
2023-01-19T08:33:08.026Z,98694.19
2023-01-19T08:36:10.304Z,98701.47
2023-01-19T08:39:13.215Z,98712.66
2023-01-19T08:42:19.599Z,98709.25
2023-01-19T08:45:21.767Z,98700.66
2023-01-19T08:48:24.165Z,98707.66
2023-01-19T08:51:26.329Z,98687.72
2023-01-19T08:54:28.704Z,98714.22
2023-01-19T08:57:30.966Z,98714.50
2023-01-19T09:00:34.367Z,98716.03
2023-01-19T09:03:43.751Z,98686.50
2023-01-19T09:06:46.196Z,98709.03
2023-01-19T09:09:48.333Z,98699.59
2023-01-19T09:12:54.136Z,98698.25
2023-01-19T09:15:57.762Z,98691.22
2023-01-19T09:19:00.434Z,98695.00
2023-01-19T09:22:04.922Z,98700.25
2023-01-19T09:25:09.688Z,98695.66
2023-01-19T09:28:14.618Z,98700.16
2023-01-19T09:31:20.084Z,98695.59
2023-01-19T09:34:23.153Z,98698.56
2023-01-19T09:37:25.288Z,98696.72
2023-01-19T09:40:28.250Z,98700.72
2023-01-19T09:43:36.795Z,98714.66
2023-01-19T09:46:45.306Z,98706.97
2023-01-19T09:49:51.503Z,98700.72
2023-01-19T09:53:31.660Z,98704.44
2023-01-19T09:56:34.893Z,98698.53
2023-01-19T09:59:38.726Z,98692.94
2023-01-19T10:02:58.706Z,98695.59
2023-01-19T10:06:06.172Z,98711.06
2023-01-19T10:09:25.483Z,98718.34
2023-01-19T10:12:42.947Z,98730.03
2023-01-19T10:16:14.968Z,98736.94
2023-01-19T10:19:21.808Z,98728.34
2023-01-19T10:22:26.240Z,98723.69
2023-01-19T10:25:28.760Z,98717.09
2023-01-19T10:28:31.065Z,98727.75
2023-01-19T10:31:36.099Z,98730.13
2023-01-19T10:34:39.800Z,98732.22
2023-01-19T10:37:44.801Z,98733.53
2023-01-19T10:41:16.329Z,98740.91
2023-01-19T10:44:26.745Z,98738.16
2023-01-19T10:47:43.116Z,98744.22
2023-01-19T10:50:45.865Z,98727.44
2023-01-19T10:54:09.010Z,98745.75
2023-01-19T10:57:17.594Z,98713.78
2023-01-19T11:00:41.280Z,98749.38
2023-01-19T11:03:44.571Z,98730.59
2023-01-19T11:06:47.936Z,98741.28
2023-01-19T11:10:12.554Z,98737.47
2023-01-19T11:13:17.933Z,98736.47
2023-01-19T11:16:23.166Z,98739.25
2023-01-19T11:19:28.400Z,98717.94
2023-01-19T11:22:33.121Z,98741.25
2023-01-19T11:25:37.421Z,98736.31
2023-01-19T11:28:45.057Z,98743.75
2023-01-19T11:31:48.205Z,98743.59
2023-01-19T11:34:50.669Z,98730.94
2023-01-19T11:38:23.115Z,98761.25
2023-01-19T11:41:33.633Z,98749.03
2023-01-19T11:44:48.077Z,98761.50
2023-01-19T11:47:52.374Z,98768.06
2023-01-19T11:50:54.980Z,98755.13
2023-01-19T11:54:01.696Z,98768.72
2023-01-19T11:57:22.374Z,98750.56
2023-01-19T12:01:21.179Z,98773.16
2023-01-19T12:04:38.467Z,98780.53
2023-01-19T12:07:45.204Z,98780.50
2023-01-19T12:10:48.245Z,98765.34
2023-01-19T12:13:58.013Z,98791.69
2023-01-19T12:17:03.296Z,98784.06
2023-01-19T12:20:34.693Z,98798.78
2023-01-19T12:24:08.133Z,98797.91
2023-01-19T12:27:19.323Z,98794.47
2023-01-19T12:30:29.470Z,98795.16
2023-01-19T12:34:06.713Z,98793.78
2023-01-19T12:37:36.351Z,98811.84
2023-01-19T12:40:42.260Z,98818.50
2023-01-19T12:43:57.288Z,98791.25
2023-01-19T12:47:24.085Z,98817.56
2023-01-19T12:54:32.699Z,98802.41
2023-01-19T12:57:41.543Z,98843.22
2023-01-19T13:00:51.336Z,98840.13
2023-01-19T13:04:09.122Z,98840.91
2023-01-19T13:07:13.613Z,98866.75
2023-01-19T13:10:53.480Z,98867.09
2023-01-19T13:13:58.679Z,98878.63
2023-01-19T13:17:02.175Z,98882.53
2023-01-19T13:20:23.447Z,98893.81
2023-01-19T13:23:49.965Z,98890.50
2023-01-19T13:26:52.108Z,98903.06
2023-01-19T13:29:54.244Z,98896.22
2023-01-19T13:33:03.317Z,98901.97
2023-01-19T13:36:16.321Z,98920.63
2023-01-19T13:39:50.210Z,98919.22
2023-01-19T13:42:53.534Z,98932.03
2023-01-19T13:46:40.994Z,98933.34
2023-01-19T13:49:46.941Z,98891.91
2023-01-19T13:52:51.302Z,98909.50
2023-01-19T13:56:21.775Z,98944.56
2023-01-19T13:59:24.022Z,98945.81
2023-01-19T14:02:26.387Z,98948.22
2023-01-19T14:05:28.766Z,98963.38
2023-01-19T14:08:32.862Z,98954.41
2023-01-19T14:11:35.287Z,98958.75
2023-01-19T14:14:37.799Z,98962.91
2023-01-19T14:17:41.459Z,98957.00
2023-01-19T14:21:08.877Z,98954.00
2023-01-19T14:24:18.914Z,98925.78
2023-01-19T14:27:24.300Z,98941.97
2023-01-19T14:30:26.891Z,98952.25
2023-01-19T14:33:45.379Z,98957.59
2023-01-19T14:36:50.857Z,98964.94
2023-01-19T14:39:55.619Z,98976.38
2023-01-19T14:43:05.681Z,98956.66
2023-01-19T14:46:07.912Z,98992.03
2023-01-19T14:49:18.670Z,98991.66
2023-01-19T14:52:25.276Z,99008.59
2023-01-19T14:55:43.286Z,98998.31
2023-01-19T14:58:45.454Z,99012.28
2023-01-19T15:01:47.772Z,99037.94
2023-01-19T15:04:53.868Z,99035.59
2023-01-19T15:07:56.012Z,99060.72
2023-01-19T15:10:58.739Z,99074.78
2023-01-19T15:14:01.507Z,99075.69
2023-01-19T15:17:03.680Z,99076.34
2023-01-19T15:20:14.198Z,99068.63
2023-01-19T15:23:16.359Z,99058.31
2023-01-19T15:26:20.846Z,99060.44
2023-01-19T15:29:25.172Z,99049.09
2023-01-19T15:32:27.320Z,99034.78
2023-01-19T15:35:29.527Z,99054.88
2023-01-19T15:38:31.655Z,99051.38
2023-01-19T15:41:33.916Z,99066.03
2023-01-19T15:44:36.105Z,99062.28
2023-01-19T15:47:38.582Z,99069.00
2023-01-19T15:50:43.012Z,99072.88
2023-01-19T15:53:45.611Z,99093.72
2023-01-19T15:56:47.920Z,99084.75
2023-01-19T15:59:51.336Z,99109.75
2023-01-19T16:02:53.530Z,99098.38
2023-01-19T16:05:55.782Z,99126.94
2023-01-19T16:09:01.440Z,99153.34
2023-01-19T16:12:04.729Z,99150.25
2023-01-19T16:15:07.992Z,99157.31
2023-01-19T16:18:10.360Z,99151.34
2023-01-19T16:21:12.616Z,99160.59
2023-01-19T16:24:14.745Z,99166.56
2023-01-19T16:27:16.917Z,99157.03
2023-01-19T16:30:19.415Z,99170.06
2023-01-19T16:33:21.763Z,99193.91
2023-01-19T16:36:29.377Z,99184.00
2023-01-19T16:39:31.503Z,99201.78
2023-01-19T16:42:33.715Z,99210.31
2023-01-19T16:45:44.296Z,99209.94
2023-01-19T16:48:46.468Z,99202.00
2023-01-19T16:51:49.860Z,99228.75
2023-01-19T16:54:54.702Z,99226.19
2023-01-19T16:57:56.883Z,99219.66
2023-01-19T17:00:59.455Z,99233.41
2023-01-19T17:04:01.821Z,99249.03
2023-01-19T17:07:03.930Z,99243.59
2023-01-19T17:10:06.948Z,99234.41
2023-01-19T17:13:09.101Z,99223.88
2023-01-19T17:16:11.325Z,99241.63
2023-01-19T17:19:16.621Z,99255.03
2023-01-19T17:22:19.067Z,99274.75
2023-01-19T17:25:21.236Z,99273.81
2023-01-19T17:28:23.899Z,99257.59
2023-01-19T17:31:26.420Z,99278.22
2023-01-19T17:34:28.688Z,99282.91
2023-01-19T17:37:30.855Z,99286.47
2023-01-19T17:40:33.028Z,99273.44
2023-01-19T17:43:35.233Z,99292.78
2023-01-19T17:46:38.144Z,99299.47
2023-01-19T17:49:40.345Z,99297.38
2023-01-19T17:52:42.601Z,99282.50
2023-01-19T17:55:44.919Z,99304.09
2023-01-19T17:58:47.300Z,99297.25
2023-01-19T18:01:49.591Z,99277.41
2023-01-19T18:04:54.743Z,99280.53
2023-01-19T18:07:56.986Z,99290.22
2023-01-19T18:11:00.273Z,99291.91
2023-01-19T18:14:02.816Z,99304.59
2023-01-19T18:17:05.129Z,99293.03
2023-01-19T18:20:07.963Z,99312.50
2023-01-19T18:23:13.504Z,99302.56
2023-01-19T18:26:18.658Z,99314.47
2023-01-19T18:29:20.806Z,99312.41
2023-01-19T18:32:23.125Z,99308.50
2023-01-19T18:35:25.617Z,99320.81
2023-01-19T18:38:27.927Z,99323.59
2023-01-19T18:41:30.666Z,99326.41
2023-01-19T18:44:32.836Z,99342.28
2023-01-19T18:47:35.102Z,99325.13
2023-01-19T18:50:37.863Z,99335.88
2023-01-19T18:53:40.588Z,99336.66
2023-01-19T18:56:42.770Z,99343.69
2023-01-19T18:59:46.651Z,99352.94
2023-01-19T19:02:48.773Z,99343.78
2023-01-19T19:05:50.931Z,99346.28
2023-01-19T19:08:54.836Z,99338.69
2023-01-19T19:11:57.127Z,99336.09
2023-01-19T19:14:59.238Z,99368.41
2023-01-19T19:18:01.378Z,99363.72
2023-01-19T19:21:08.615Z,99366.44
2023-01-19T19:24:13.610Z,99369.59
2023-01-19T19:27:17.025Z,99359.53
2023-01-19T19:30:20.714Z,99384.72
2023-01-19T19:33:22.888Z,99363.88
2023-01-19T19:36:26.528Z,99384.03
2023-01-19T19:39:29.103Z,99391.75
2023-01-19T19:42:31.389Z,99388.84
2023-01-19T19:45:33.566Z,99410.88
2023-01-19T19:48:38.876Z,99421.44
2023-01-19T19:51:41.941Z,99415.16
2023-01-19T19:54:45.125Z,99424.91
2023-01-19T19:57:47.594Z,99426.63
2023-01-19T20:00:50.088Z,99423.25
2023-01-19T20:03:52.414Z,99435.09
2023-01-19T20:06:54.553Z,99424.66
2023-01-19T20:09:56.740Z,99426.75
2023-01-19T20:12:58.921Z,99428.31
2023-01-19T20:16:03.153Z,99389.72
2023-01-19T20:19:05.541Z,99423.75
2023-01-19T20:22:07.697Z,99412.50
2023-01-19T20:25:09.881Z,99424.94
2023-01-19T20:28:12.018Z,99437.13
2023-01-19T20:31:16.740Z,99413.59
2023-01-19T20:34:21.462Z,99444.50
2023-01-19T20:37:23.656Z,99431.88
2023-01-19T20:40:25.873Z,99432.28
2023-01-19T20:43:28.930Z,99448.38
2023-01-19T20:46:31.109Z,99429.66
2023-01-19T20:49:33.233Z,99449.78
2023-01-19T20:52:35.894Z,99455.28
2023-01-19T20:55:38.092Z,99424.09
2023-01-19T20:58:40.948Z,99432.13
2023-01-19T21:01:43.873Z,99406.75
2023-01-19T21:04:46.164Z,99425.50
2023-01-19T21:07:48.905Z,99431.59
2023-01-19T21:10:57.196Z,99433.97
2023-01-19T21:13:59.397Z,99439.53
2023-01-19T21:17:01.546Z,99442.06
2023-01-19T21:20:04.041Z,99425.81
2023-01-19T21:23:06.211Z,99426.78
2023-01-19T21:26:08.575Z,99429.75
2023-01-19T21:29:13.362Z,99446.25
2023-01-19T21:32:15.555Z,99469.81
2023-01-19T21:35:17.751Z,99461.28
2023-01-19T21:38:20.497Z,99459.66
2023-01-19T21:41:22.702Z,99457.81
2023-01-19T21:44:24.915Z,99479.97
2023-01-19T21:47:27.050Z,99530.41
2023-01-19T21:50:29.141Z,99557.06
2023-01-19T21:53:31.406Z,99570.28
2023-01-19T21:56:34.352Z,99541.97
2023-01-19T21:59:36.489Z,99530.84
2023-01-19T22:02:39.338Z,99536.66
2023-01-19T22:05:42.101Z,99527.66
2023-01-19T22:08:46.468Z,99480.81
2023-01-19T22:11:48.672Z,99507.84
2023-01-19T22:14:50.878Z,99512.84
2023-01-19T22:17:53.073Z,99517.50
2023-01-19T22:20:55.361Z,99522.22
2023-01-19T22:24:01.900Z,99515.97
2023-01-19T22:27:04.071Z,99519.72
2023-01-19T22:30:06.929Z,99528.50
2023-01-19T22:33:09.052Z,99521.81
2023-01-19T22:36:12.989Z,99533.16
2023-01-19T22:39:15.177Z,99505.00
2023-01-19T22:42:17.306Z,99499.91
2023-01-19T22:45:19.842Z,99511.31
2023-01-19T22:48:22.287Z,99516.56
2023-01-19T22:51:25.682Z,99523.06
2023-01-19T22:54:29.848Z,99517.41
2023-01-19T22:57:35.732Z,99515.16
2023-01-19T23:00:37.977Z,99506.22
2023-01-19T23:03:40.548Z,99493.16
2023-01-19T23:06:43.046Z,99499.47
2023-01-19T23:09:45.492Z,99481.41
2023-01-19T23:12:48.586Z,99467.16
2023-01-19T23:15:50.753Z,99459.53
2023-01-19T23:18:54.808Z,99453.97
2023-01-19T23:21:57.014Z,99460.13
2023-01-19T23:24:59.205Z,99474.28
2023-01-19T23:28:01.315Z,99468.38
2023-01-19T23:31:25.176Z,99475.78
2023-01-19T23:34:27.434Z,99479.44
2023-01-19T23:37:29.623Z,99493.09
2023-01-19T23:40:31.920Z,99496.66
2023-01-19T23:43:34.660Z,99505.47
2023-01-19T23:46:37.053Z,99505.56
2023-01-19T23:49:40.122Z,99517.97
2023-01-19T23:52:42.230Z,99506.75
2023-01-19T23:55:44.333Z,99496.94
2023-01-19T23:58:48.484Z,99501.13
